sensor_id;sensor_type;location;lat;lon;timestamp;P1;durP1;ratioP1;P2;durP2;ratioP2
8584;SDS011;7180;52.742;11.420;2023-03-08T00:00:31;13.67;;;12.47;;
8584;SDS011;7180;52.742;11.420;2023-03-08T00:02:56;15.00;;;13.50;;
8584;SDS011;7180;52.742;11.420;2023-03-08T00:05:22;14.07;;;12.83;;
8584;SDS011;7180;52.742;11.420;2023-03-08T00:07:47;13.17;;;12.07;;
8584;SDS011;7180;52.742;11.420;2023-03-08T00:10:12;13.23;;;12.17;;
8584;SDS011;7180;52.742;11.420;2023-03-08T00:12:38;13.13;;;12.17;;
8584;SDS011;7180;52.742;11.420;2023-03-08T00:15:04;13.40;;;12.40;;
8584;SDS011;7180;52.742;11.420;2023-03-08T00:17:29;14.13;;;12.80;;
8584;SDS011;7180;52.742;11.420;2023-03-08T00:19:55;13.20;;;12.20;;
8584;SDS011;7180;52.742;11.420;2023-03-08T00:22:21;14.53;;;13.00;;
8584;SDS011;7180;52.742;11.420;2023-03-08T00:24:46;13.90;;;12.80;;
8584;SDS011;7180;52.742;11.420;2023-03-08T00:27:12;13.33;;;12.27;;
8584;SDS011;7180;52.742;11.420;2023-03-08T00:29:37;13.23;;;12.10;;
8584;SDS011;7180;52.742;11.420;2023-03-08T00:32:02;13.33;;;12.40;;
8584;SDS011;7180;52.742;11.420;2023-03-08T00:34:27;13.53;;;12.43;;
8584;SDS011;7180;52.742;11.420;2023-03-08T00:36:53;14.37;;;13.07;;
8584;SDS011;7180;52.742;11.420;2023-03-08T00:39:18;13.67;;;12.53;;
8584;SDS011;7180;52.742;11.420;2023-03-08T00:41:43;14.40;;;13.20;;
8584;SDS011;7180;52.742;11.420;2023-03-08T00:44:08;14.90;;;13.50;;
8584;SDS011;7180;52.742;11.420;2023-03-08T00:46:34;13.77;;;12.67;;
8584;SDS011;7180;52.742;11.420;2023-03-08T00:48:59;14.43;;;13.00;;
8584;SDS011;7180;52.742;11.420;2023-03-08T00:51:25;13.50;;;12.60;;
8584;SDS011;7180;52.742;11.420;2023-03-08T00:53:50;13.80;;;12.70;;
8584;SDS011;7180;52.742;11.420;2023-03-08T00:56:16;13.20;;;12.00;;
8584;SDS011;7180;52.742;11.420;2023-03-08T00:58:42;12.83;;;11.73;;
8584;SDS011;7180;52.742;11.420;2023-03-08T01:03:35;12.60;;;11.80;;
8584;SDS011;7180;52.742;11.420;2023-03-08T01:06:04;13.07;;;11.87;;
8584;SDS011;7180;52.742;11.420;2023-03-08T01:08:32;12.60;;;11.40;;
8584;SDS011;7180;52.742;11.420;2023-03-08T01:10:58;12.90;;;11.90;;
8584;SDS011;7180;52.742;11.420;2023-03-08T01:13:25;13.20;;;12.10;;
8584;SDS011;7180;52.742;11.420;2023-03-08T01:15:52;12.77;;;11.77;;
8584;SDS011;7180;52.742;11.420;2023-03-08T01:18:18;13.03;;;12.13;;
8584;SDS011;7180;52.742;11.420;2023-03-08T01:20:43;13.17;;;12.17;;
8584;SDS011;7180;52.742;11.420;2023-03-08T01:23:09;12.97;;;11.97;;
8584;SDS011;7180;52.742;11.420;2023-03-08T01:25:35;13.70;;;12.70;;
8584;SDS011;7180;52.742;11.420;2023-03-08T01:28:00;14.13;;;13.03;;
8584;SDS011;7180;52.742;11.420;2023-03-08T01:30:25;13.57;;;12.40;;
8584;SDS011;7180;52.742;11.420;2023-03-08T01:32:51;13.73;;;12.57;;
8584;SDS011;7180;52.742;11.420;2023-03-08T01:35:16;13.33;;;11.97;;
8584;SDS011;7180;52.742;11.420;2023-03-08T01:37:41;12.50;;;11.60;;
8584;SDS011;7180;52.742;11.420;2023-03-08T01:40:07;12.30;;;11.30;;
8584;SDS011;7180;52.742;11.420;2023-03-08T01:42:33;13.27;;;12.27;;
8584;SDS011;7180;52.742;11.420;2023-03-08T01:45:03;12.13;;;11.23;;
8584;SDS011;7180;52.742;11.420;2023-03-08T01:47:31;12.63;;;11.63;;
8584;SDS011;7180;52.742;11.420;2023-03-08T01:50:02;12.77;;;11.70;;
8584;SDS011;7180;52.742;11.420;2023-03-08T01:52:34;13.77;;;12.77;;
8584;SDS011;7180;52.742;11.420;2023-03-08T01:55:05;12.07;;;11.37;;
8584;SDS011;7180;52.742;11.420;2023-03-08T01:57:37;13.23;;;12.20;;
8584;SDS011;7180;52.742;11.420;2023-03-08T02:00:07;12.57;;;11.77;;
8584;SDS011;7180;52.742;11.420;2023-03-08T02:02:48;12.40;;;11.50;;
8584;SDS011;7180;52.742;11.420;2023-03-08T02:05:17;11.83;;;11.00;;
8584;SDS011;7180;52.742;11.420;2023-03-08T02:07:43;12.13;;;11.33;;
8584;SDS011;7180;52.742;11.420;2023-03-08T02:10:08;11.80;;;10.90;;
8584;SDS011;7180;52.742;11.420;2023-03-08T02:12:35;11.47;;;10.77;;
8584;SDS011;7180;52.742;11.420;2023-03-08T02:15:03;11.83;;;11.13;;
8584;SDS011;7180;52.742;11.420;2023-03-08T02:17:30;12.27;;;11.37;;
8584;SDS011;7180;52.742;11.420;2023-03-08T02:20:11;12.57;;;11.53;;
8584;SDS011;7180;52.742;11.420;2023-03-08T02:22:42;12.03;;;11.27;;
8584;SDS011;7180;52.742;11.420;2023-03-08T02:27:44;12.33;;;11.63;;
8584;SDS011;7180;52.742;11.420;2023-03-08T02:30:11;12.13;;;11.30;;
8584;SDS011;7180;52.742;11.420;2023-03-08T02:32:39;12.13;;;11.23;;
8584;SDS011;7180;52.742;11.420;2023-03-08T02:35:04;11.60;;;10.80;;
8584;SDS011;7180;52.742;11.420;2023-03-08T02:37:31;11.90;;;10.90;;
8584;SDS011;7180;52.742;11.420;2023-03-08T02:39:56;12.30;;;11.50;;
8584;SDS011;7180;52.742;11.420;2023-03-08T02:42:22;12.90;;;12.00;;
8584;SDS011;7180;52.742;11.420;2023-03-08T02:44:47;11.63;;;10.83;;
8584;SDS011;7180;52.742;11.420;2023-03-08T02:47:13;12.00;;;11.10;;
8584;SDS011;7180;52.742;11.420;2023-03-08T02:49:38;11.73;;;10.93;;
8584;SDS011;7180;52.742;11.420;2023-03-08T02:52:03;11.33;;;10.53;;
8584;SDS011;7180;52.742;11.420;2023-03-08T02:54:29;11.87;;;11.07;;
8584;SDS011;7180;52.742;11.420;2023-03-08T02:56:54;12.03;;;11.13;;
8584;SDS011;7180;52.742;11.420;2023-03-08T02:59:19;12.10;;;11.20;;
8584;SDS011;7180;52.742;11.420;2023-03-08T03:01:44;11.13;;;10.37;;
8584;SDS011;7180;52.742;11.420;2023-03-08T03:04:10;11.20;;;10.50;;
8584;SDS011;7180;52.742;11.420;2023-03-08T03:06:35;11.23;;;10.43;;
8584;SDS011;7180;52.742;11.420;2023-03-08T03:09:04;11.60;;;10.60;;
8584;SDS011;7180;52.742;11.420;2023-03-08T03:11:30;11.63;;;10.93;;
8584;SDS011;7180;52.742;11.420;2023-03-08T03:13:56;12.57;;;11.67;;
8584;SDS011;7180;52.742;11.420;2023-03-08T03:16:24;12.03;;;11.23;;
8584;SDS011;7180;52.742;11.420;2023-03-08T03:18:50;11.83;;;11.03;;
8584;SDS011;7180;52.742;11.420;2023-03-08T03:21:19;11.30;;;10.50;;
8584;SDS011;7180;52.742;11.420;2023-03-08T03:23:45;11.17;;;10.37;;
8584;SDS011;7180;52.742;11.420;2023-03-08T03:26:12;11.20;;;10.50;;
8584;SDS011;7180;52.742;11.420;2023-03-08T03:28:39;10.90;;;10.10;;
8584;SDS011;7180;52.742;11.420;2023-03-08T03:31:06;11.50;;;10.63;;
8584;SDS011;7180;52.742;11.420;2023-03-08T03:33:33;12.27;;;11.37;;
8584;SDS011;7180;52.742;11.420;2023-03-08T03:35:58;11.73;;;10.80;;
8584;SDS011;7180;52.742;11.420;2023-03-08T03:38:23;12.27;;;11.37;;
8584;SDS011;7180;52.742;11.420;2023-03-08T03:40:49;12.10;;;11.30;;
8584;SDS011;7180;52.742;11.420;2023-03-08T03:43:14;12.07;;;11.27;;
8584;SDS011;7180;52.742;11.420;2023-03-08T03:45:39;12.20;;;11.37;;
8584;SDS011;7180;52.742;11.420;2023-03-08T03:48:05;12.73;;;11.73;;
8584;SDS011;7180;52.742;11.420;2023-03-08T03:50:30;13.00;;;12.00;;
8584;SDS011;7180;52.742;11.420;2023-03-08T03:52:55;12.37;;;11.57;;
8584;SDS011;7180;52.742;11.420;2023-03-08T03:55:20;12.30;;;11.43;;
8584;SDS011;7180;52.742;11.420;2023-03-08T03:57:46;12.17;;;11.33;;
8584;SDS011;7180;52.742;11.420;2023-03-08T04:00:11;12.67;;;11.63;;
8584;SDS011;7180;52.742;11.420;2023-03-08T04:02:37;13.07;;;12.07;;
8584;SDS011;7180;52.742;11.420;2023-03-08T04:05:02;11.90;;;11.10;;
8584;SDS011;7180;52.742;11.420;2023-03-08T04:07:28;11.63;;;10.83;;
8584;SDS011;7180;52.742;11.420;2023-03-08T04:09:53;12.90;;;11.63;;
8584;SDS011;7180;52.742;11.420;2023-03-08T04:12:19;12.33;;;11.43;;
8584;SDS011;7180;52.742;11.420;2023-03-08T04:14:44;12.57;;;11.47;;
8584;SDS011;7180;52.742;11.420;2023-03-08T04:17:09;12.23;;;11.33;;
8584;SDS011;7180;52.742;11.420;2023-03-08T04:19:35;12.40;;;11.50;;
8584;SDS011;7180;52.742;11.420;2023-03-08T04:22:00;12.57;;;11.63;;
8584;SDS011;7180;52.742;11.420;2023-03-08T04:24:25;11.97;;;11.07;;
8584;SDS011;7180;52.742;11.420;2023-03-08T04:26:50;12.43;;;11.33;;
8584;SDS011;7180;52.742;11.420;2023-03-08T04:29:16;12.50;;;11.63;;
8584;SDS011;7180;52.742;11.420;2023-03-08T04:31:41;12.80;;;11.70;;
8584;SDS011;7180;52.742;11.420;2023-03-08T04:34:06;12.97;;;11.97;;
8584;SDS011;7180;52.742;11.420;2023-03-08T04:36:32;13.30;;;12.27;;
8584;SDS011;7180;52.742;11.420;2023-03-08T04:38:57;13.50;;;12.50;;
8584;SDS011;7180;52.742;11.420;2023-03-08T04:41:23;13.70;;;12.50;;
8584;SDS011;7180;52.742;11.420;2023-03-08T04:43:52;14.30;;;13.00;;
8584;SDS011;7180;52.742;11.420;2023-03-08T04:46:22;13.13;;;12.23;;
8584;SDS011;7180;52.742;11.420;2023-03-08T04:48:52;14.97;;;13.77;;
8584;SDS011;7180;52.742;11.420;2023-03-08T04:51:19;15.07;;;13.67;;
8584;SDS011;7180;52.742;11.420;2023-03-08T04:53:47;15.23;;;13.93;;
8584;SDS011;7180;52.742;11.420;2023-03-08T04:56:13;15.23;;;13.90;;
8584;SDS011;7180;52.742;11.420;2023-03-08T04:58:39;17.73;;;16.03;;
8584;SDS011;7180;52.742;11.420;2023-03-08T05:01:15;16.70;;;15.20;;
8584;SDS011;7180;52.742;11.420;2023-03-08T05:03:42;15.40;;;14.10;;
8584;SDS011;7180;52.742;11.420;2023-03-08T05:06:08;15.23;;;13.70;;
8584;SDS011;7180;52.742;11.420;2023-03-08T05:08:34;15.47;;;14.03;;
8584;SDS011;7180;52.742;11.420;2023-03-08T05:11:00;15.13;;;13.83;;
8584;SDS011;7180;52.742;11.420;2023-03-08T05:13:26;16.07;;;14.47;;
8584;SDS011;7180;52.742;11.420;2023-03-08T05:15:53;17.43;;;15.63;;
8584;SDS011;7180;52.742;11.420;2023-03-08T05:18:18;13.93;;;12.73;;
8584;SDS011;7180;52.742;11.420;2023-03-08T05:20:44;13.33;;;12.17;;
8584;SDS011;7180;52.742;11.420;2023-03-08T05:23:19;13.27;;;12.17;;
8584;SDS011;7180;52.742;11.420;2023-03-08T05:25:45;13.67;;;12.43;;
8584;SDS011;7180;52.742;11.420;2023-03-08T05:28:10;13.47;;;12.37;;
8584;SDS011;7180;52.742;11.420;2023-03-08T05:30:39;13.90;;;12.70;;
8584;SDS011;7180;52.742;11.420;2023-03-08T05:33:05;13.83;;;12.63;;
8584;SDS011;7180;52.742;11.420;2023-03-08T05:35:30;12.20;;;11.20;;
8584;SDS011;7180;52.742;11.420;2023-03-08T05:37:55;12.97;;;11.77;;
8584;SDS011;7180;52.742;11.420;2023-03-08T05:40:21;13.90;;;12.47;;
8584;SDS011;7180;52.742;11.420;2023-03-08T05:42:46;12.63;;;11.53;;
8584;SDS011;7180;52.742;11.420;2023-03-08T05:45:11;13.43;;;12.23;;
8584;SDS011;7180;52.742;11.420;2023-03-08T05:47:36;13.67;;;12.47;;
8584;SDS011;7180;52.742;11.420;2023-03-08T05:50:02;14.40;;;13.10;;
8584;SDS011;7180;52.742;11.420;2023-03-08T05:52:28;14.80;;;13.40;;
8584;SDS011;7180;52.742;11.420;2023-03-08T05:54:54;14.33;;;12.93;;
8584;SDS011;7180;52.742;11.420;2023-03-08T05:57:19;12.90;;;11.73;;
8584;SDS011;7180;52.742;11.420;2023-03-08T05:59:45;12.50;;;11.23;;
8584;SDS011;7180;52.742;11.420;2023-03-08T06:02:10;11.27;;;10.47;;
8584;SDS011;7180;52.742;11.420;2023-03-08T06:04:35;12.17;;;11.27;;
8584;SDS011;7180;52.742;11.420;2023-03-08T06:07:00;11.67;;;10.67;;
8584;SDS011;7180;52.742;11.420;2023-03-08T06:09:26;11.63;;;10.83;;
8584;SDS011;7180;52.742;11.420;2023-03-08T06:11:51;12.03;;;11.10;;
8584;SDS011;7180;52.742;11.420;2023-03-08T06:14:16;12.80;;;11.70;;
8584;SDS011;7180;52.742;11.420;2023-03-08T06:16:41;12.27;;;11.37;;
8584;SDS011;7180;52.742;11.420;2023-03-08T06:19:07;12.30;;;11.30;;
8584;SDS011;7180;52.742;11.420;2023-03-08T06:21:32;12.70;;;11.70;;
8584;SDS011;7180;52.742;11.420;2023-03-08T06:23:58;12.43;;;11.33;;
8584;SDS011;7180;52.742;11.420;2023-03-08T06:26:23;14.83;;;13.50;;
8584;SDS011;7180;52.742;11.420;2023-03-08T06:28:48;13.60;;;12.50;;
8584;SDS011;7180;52.742;11.420;2023-03-08T06:31:14;13.97;;;12.87;;
8584;SDS011;7180;52.742;11.420;2023-03-08T06:33:41;13.50;;;12.37;;
8584;SDS011;7180;52.742;11.420;2023-03-08T06:36:11;13.10;;;12.00;;
8584;SDS011;7180;52.742;11.420;2023-03-08T06:38:39;14.20;;;13.00;;
8584;SDS011;7180;52.742;11.420;2023-03-08T06:41:05;13.80;;;12.70;;
8584;SDS011;7180;52.742;11.420;2023-03-08T06:43:32;13.80;;;12.60;;
8584;SDS011;7180;52.742;11.420;2023-03-08T06:46:01;14.70;;;13.50;;
8584;SDS011;7180;52.742;11.420;2023-03-08T06:48:28;14.73;;;13.53;;
8584;SDS011;7180;52.742;11.420;2023-03-08T06:50:53;14.63;;;13.43;;
8584;SDS011;7180;52.742;11.420;2023-03-08T06:53:18;13.60;;;12.53;;
8584;SDS011;7180;52.742;11.420;2023-03-08T06:55:43;14.57;;;13.10;;
8584;SDS011;7180;52.742;11.420;2023-03-08T06:58:09;14.73;;;12.97;;
8584;SDS011;7180;52.742;11.420;2023-03-08T07:00:34;13.80;;;12.60;;
8584;SDS011;7180;52.742;11.420;2023-03-08T07:02:59;14.40;;;13.00;;
8584;SDS011;7180;52.742;11.420;2023-03-08T07:05:25;14.27;;;12.77;;
8584;SDS011;7180;52.742;11.420;2023-03-08T07:07:51;14.47;;;13.17;;
8584;SDS011;7180;52.742;11.420;2023-03-08T07:10:17;13.93;;;12.70;;
8584;SDS011;7180;52.742;11.420;2023-03-08T07:12:44;13.53;;;12.43;;
8584;SDS011;7180;52.742;11.420;2023-03-08T07:15:13;14.60;;;13.20;;
8584;SDS011;7180;52.742;11.420;2023-03-08T07:17:39;13.50;;;12.37;;
8584;SDS011;7180;52.742;11.420;2023-03-08T07:20:06;13.87;;;12.67;;
8584;SDS011;7180;52.742;11.420;2023-03-08T07:22:32;13.97;;;12.63;;
8584;SDS011;7180;52.742;11.420;2023-03-08T07:24:57;13.63;;;12.17;;
8584;SDS011;7180;52.742;11.420;2023-03-08T07:27:23;15.27;;;13.77;;
8584;SDS011;7180;52.742;11.420;2023-03-08T07:29:48;14.30;;;12.87;;
8584;SDS011;7180;52.742;11.420;2023-03-08T07:32:14;14.20;;;12.80;;
8584;SDS011;7180;52.742;11.420;2023-03-08T07:34:39;12.67;;;11.60;;
8584;SDS011;7180;52.742;11.420;2023-03-08T07:37:04;12.53;;;11.30;;
8584;SDS011;7180;52.742;11.420;2023-03-08T07:39:29;14.07;;;12.17;;
8584;SDS011;7180;52.742;11.420;2023-03-08T07:41:55;13.20;;;12.10;;
8584;SDS011;7180;52.742;11.420;2023-03-08T07:44:21;13.17;;;11.87;;
8584;SDS011;7180;52.742;11.420;2023-03-08T07:46:46;13.23;;;11.93;;
8584;SDS011;7180;52.742;11.420;2023-03-08T07:49:11;13.30;;;12.20;;
8584;SDS011;7180;52.742;11.420;2023-03-08T07:51:37;13.87;;;12.63;;
8584;SDS011;7180;52.742;11.420;2023-03-08T07:54:02;12.70;;;11.60;;
8584;SDS011;7180;52.742;11.420;2023-03-08T07:56:27;13.03;;;11.83;;
8584;SDS011;7180;52.742;11.420;2023-03-08T07:58:55;13.07;;;11.87;;
8584;SDS011;7180;52.742;11.420;2023-03-08T08:01:21;12.80;;;11.90;;
8584;SDS011;7180;52.742;11.420;2023-03-08T08:03:46;12.23;;;11.27;;
8584;SDS011;7180;52.742;11.420;2023-03-08T08:06:12;13.17;;;12.07;;
8584;SDS011;7180;52.742;11.420;2023-03-08T08:08:37;13.53;;;12.33;;
8584;SDS011;7180;52.742;11.420;2023-03-08T08:11:08;12.97;;;11.87;;
8584;SDS011;7180;52.742;11.420;2023-03-08T08:13:35;12.93;;;11.83;;
8584;SDS011;7180;52.742;11.420;2023-03-08T08:16:01;13.23;;;12.23;;
8584;SDS011;7180;52.742;11.420;2023-03-08T08:18:27;13.00;;;12.00;;
8584;SDS011;7180;52.742;11.420;2023-03-08T08:21:00;12.90;;;11.80;;
8584;SDS011;7180;52.742;11.420;2023-03-08T08:23:29;12.77;;;11.77;;
8584;SDS011;7180;52.742;11.420;2023-03-08T08:25:55;12.40;;;11.50;;
8584;SDS011;7180;52.742;11.420;2023-03-08T08:28:21;12.23;;;11.33;;
8584;SDS011;7180;52.742;11.420;2023-03-08T08:31:01;12.87;;;11.87;;
8584;SDS011;7180;52.742;11.420;2023-03-08T08:33:29;12.80;;;11.70;;
8584;SDS011;7180;52.742;11.420;2023-03-08T08:35:55;12.97;;;11.97;;
8584;SDS011;7180;52.742;11.420;2023-03-08T08:38:20;13.63;;;12.53;;
8584;SDS011;7180;52.742;11.420;2023-03-08T08:40:46;13.20;;;12.10;;
8584;SDS011;7180;52.742;11.420;2023-03-08T08:43:11;12.77;;;11.77;;
8584;SDS011;7180;52.742;11.420;2023-03-08T08:45:44;13.63;;;12.63;;
8584;SDS011;7180;52.742;11.420;2023-03-08T08:48:11;14.03;;;12.73;;
8584;SDS011;7180;52.742;11.420;2023-03-08T08:50:37;13.03;;;11.93;;
8584;SDS011;7180;52.742;11.420;2023-03-08T08:53:06;12.80;;;11.70;;
8584;SDS011;7180;52.742;11.420;2023-03-08T08:55:32;13.20;;;12.10;;
8584;SDS011;7180;52.742;11.420;2023-03-08T08:57:57;13.13;;;11.93;;
8584;SDS011;7180;52.742;11.420;2023-03-08T09:00:23;13.00;;;11.93;;
8584;SDS011;7180;52.742;11.420;2023-03-08T09:02:48;13.43;;;12.03;;
8584;SDS011;7180;52.742;11.420;2023-03-08T09:05:14;13.43;;;12.20;;
8584;SDS011;7180;52.742;11.420;2023-03-08T09:07:39;13.20;;;12.10;;
8584;SDS011;7180;52.742;11.420;2023-03-08T09:10:04;12.90;;;11.70;;
8584;SDS011;7180;52.742;11.420;2023-03-08T09:12:30;12.93;;;11.83;;
8584;SDS011;7180;52.742;11.420;2023-03-08T09:14:56;13.77;;;12.67;;
8584;SDS011;7180;52.742;11.420;2023-03-08T09:17:22;12.93;;;11.93;;
8584;SDS011;7180;52.742;11.420;2023-03-08T09:19:47;13.20;;;12.10;;
8584;SDS011;7180;52.742;11.420;2023-03-08T09:22:12;13.23;;;12.23;;
8584;SDS011;7180;52.742;11.420;2023-03-08T09:24:38;13.07;;;12.03;;
8584;SDS011;7180;52.742;11.420;2023-03-08T09:27:04;13.37;;;12.27;;
8584;SDS011;7180;52.742;11.420;2023-03-08T09:29:30;13.47;;;12.33;;
8584;SDS011;7180;52.742;11.420;2023-03-08T09:31:55;14.27;;;13.07;;
8584;SDS011;7180;52.742;11.420;2023-03-08T09:34:20;13.40;;;12.30;;
8584;SDS011;7180;52.742;11.420;2023-03-08T09:36:46;12.87;;;11.87;;
8584;SDS011;7180;52.742;11.420;2023-03-08T09:39:11;13.20;;;12.10;;
8584;SDS011;7180;52.742;11.420;2023-03-08T09:41:45;12.67;;;11.57;;
8584;SDS011;7180;52.742;11.420;2023-03-08T09:46:57;12.47;;;11.47;;
8584;SDS011;7180;52.742;11.420;2023-03-08T09:49:27;13.23;;;12.23;;
8584;SDS011;7180;52.742;11.420;2023-03-08T09:52:39;13.27;;;12.27;;
8584;SDS011;7180;52.742;11.420;2023-03-08T09:54:49;12.17;;;11.23;;
8584;SDS011;7180;52.742;11.420;2023-03-08T09:57:17;12.43;;;11.23;;
8584;SDS011;7180;52.742;11.420;2023-03-08T09:59:54;13.70;;;12.50;;
8584;SDS011;7180;52.742;11.420;2023-03-08T10:07:48;11.63;;;10.73;;
8584;SDS011;7180;52.742;11.420;2023-03-08T10:10:47;11.80;;;10.80;;
8584;SDS011;7180;52.742;11.420;2023-03-08T10:16:03;11.47;;;10.57;;
8584;SDS011;7180;52.742;11.420;2023-03-08T10:18:30;12.00;;;11.07;;
8584;SDS011;7180;52.742;11.420;2023-03-08T10:20:59;12.37;;;11.37;;
8584;SDS011;7180;52.742;11.420;2023-03-08T10:23:26;13.30;;;12.30;;
8584;SDS011;7180;52.742;11.420;2023-03-08T10:25:53;12.53;;;11.53;;
8584;SDS011;7180;52.742;11.420;2023-03-08T10:28:19;11.90;;;10.90;;
8584;SDS011;7180;52.742;11.420;2023-03-08T10:30:54;12.30;;;11.40;;
8584;SDS011;7180;52.742;11.420;2023-03-08T10:33:26;11.97;;;11.07;;
8584;SDS011;7180;52.742;11.420;2023-03-08T10:36:00;12.00;;;11.00;;
8584;SDS011;7180;52.742;11.420;2023-03-08T10:38:36;12.20;;;11.20;;
8584;SDS011;7180;52.742;11.420;2023-03-08T10:41:10;12.30;;;11.23;;
8584;SDS011;7180;52.742;11.420;2023-03-08T10:43:39;12.83;;;11.93;;
8584;SDS011;7180;52.742;11.420;2023-03-08T10:46:13;12.17;;;11.27;;
8584;SDS011;7180;52.742;11.420;2023-03-08T10:48:43;11.67;;;10.67;;
8584;SDS011;7180;52.742;11.420;2023-03-08T10:51:15;11.60;;;10.70;;
8584;SDS011;7180;52.742;11.420;2023-03-08T10:53:52;11.37;;;10.53;;
8584;SDS011;7180;52.742;11.420;2023-03-08T10:56:36;11.23;;;10.43;;
8584;SDS011;7180;52.742;11.420;2023-03-08T10:59:45;11.57;;;10.67;;
8584;SDS011;7180;52.742;11.420;2023-03-08T11:02:02;10.30;;;9.60;;
8584;SDS011;7180;52.742;11.420;2023-03-08T11:04:48;10.53;;;9.73;;
8584;SDS011;7180;52.742;11.420;2023-03-08T11:07:36;10.00;;;9.30;;
8584;SDS011;7180;52.742;11.420;2023-03-08T11:10:14;10.50;;;9.70;;
8584;SDS011;7180;52.742;11.420;2023-03-08T11:12:41;12.00;;;11.20;;
8584;SDS011;7180;52.742;11.420;2023-03-08T11:15:17;12.70;;;11.60;;
8584;SDS011;7180;52.742;11.420;2023-03-08T11:17:54;12.43;;;11.53;;
8584;SDS011;7180;52.742;11.420;2023-03-08T11:23:14;11.97;;;11.07;;
8584;SDS011;7180;52.742;11.420;2023-03-08T11:28:31;11.83;;;10.93;;
8584;SDS011;7180;52.742;11.420;2023-03-08T11:39:31;11.90;;;10.97;;
8584;SDS011;7180;52.742;11.420;2023-03-08T11:42:05;11.43;;;10.63;;
8584;SDS011;7180;52.742;11.420;2023-03-08T11:58:57;11.03;;;10.13;;
8584;SDS011;7180;52.742;11.420;2023-03-08T12:01:31;10.70;;;10.00;;
8584;SDS011;7180;52.742;11.420;2023-03-08T12:04:04;10.80;;;10.00;;
8584;SDS011;7180;52.742;11.420;2023-03-08T12:06:39;11.60;;;10.70;;
8584;SDS011;7180;52.742;11.420;2023-03-08T12:09:09;12.07;;;11.10;;
8584;SDS011;7180;52.742;11.420;2023-03-08T12:11:43;12.40;;;11.47;;
8584;SDS011;7180;52.742;11.420;2023-03-08T12:17:01;12.87;;;11.87;;
8584;SDS011;7180;52.742;11.420;2023-03-08T12:19:41;13.33;;;12.27;;
8584;SDS011;7180;52.742;11.420;2023-03-08T12:22:16;13.70;;;12.70;;
8584;SDS011;7180;52.742;11.420;2023-03-08T12:27:22;13.13;;;12.23;;
8584;SDS011;7180;52.742;11.420;2023-03-08T12:30:02;13.30;;;12.27;;
8584;SDS011;7180;52.742;11.420;2023-03-08T12:32:38;13.03;;;12.03;;
8584;SDS011;7180;52.742;11.420;2023-03-08T12:35:06;12.83;;;11.93;;
8584;SDS011;7180;52.742;11.420;2023-03-08T12:37:55;13.27;;;12.27;;
8584;SDS011;7180;52.742;11.420;2023-03-08T12:40:37;13.57;;;12.60;;
8584;SDS011;7180;52.742;11.420;2023-03-08T12:48:30;13.17;;;12.23;;
8584;SDS011;7180;52.742;11.420;2023-03-08T12:51:05;12.90;;;11.90;;
8584;SDS011;7180;52.742;11.420;2023-03-08T12:58:35;13.20;;;12.20;;
8584;SDS011;7180;52.742;11.420;2023-03-08T13:01:04;13.73;;;12.70;;
8584;SDS011;7180;52.742;11.420;2023-03-08T13:03:35;13.63;;;12.63;;
8584;SDS011;7180;52.742;11.420;2023-03-08T13:06:24;13.23;;;12.23;;
8584;SDS011;7180;52.742;11.420;2023-03-08T13:09:27;13.30;;;12.30;;
8584;SDS011;7180;52.742;11.420;2023-03-08T13:14:40;13.17;;;12.27;;
8584;SDS011;7180;52.742;11.420;2023-03-08T13:17:29;13.27;;;12.17;;
8584;SDS011;7180;52.742;11.420;2023-03-08T13:19:56;13.03;;;12.03;;
8584;SDS011;7180;52.742;11.420;2023-03-08T13:22:28;13.63;;;12.67;;
8584;SDS011;7180;52.742;11.420;2023-03-08T13:25:23;13.60;;;12.50;;
8584;SDS011;7180;52.742;11.420;2023-03-08T13:28:05;12.37;;;11.47;;
8584;SDS011;7180;52.742;11.420;2023-03-08T13:30:34;13.03;;;12.03;;
8584;SDS011;7180;52.742;11.420;2023-03-08T13:33:10;12.10;;;11.30;;
8584;SDS011;7180;52.742;11.420;2023-03-08T13:35:38;12.30;;;11.40;;
8584;SDS011;7180;52.742;11.420;2023-03-08T13:38:03;12.77;;;11.87;;
8584;SDS011;7180;52.742;11.420;2023-03-08T13:40:29;12.83;;;11.93;;
8584;SDS011;7180;52.742;11.420;2023-03-08T13:42:59;12.80;;;11.90;;
8584;SDS011;7180;52.742;11.420;2023-03-08T13:45:26;13.40;;;12.37;;
8584;SDS011;7180;52.742;11.420;2023-03-08T13:47:53;11.50;;;10.70;;
8584;SDS011;7180;52.742;11.420;2023-03-08T13:50:33;11.90;;;11.00;;
8584;SDS011;7180;52.742;11.420;2023-03-08T13:53:00;11.70;;;10.90;;
8584;SDS011;7180;52.742;11.420;2023-03-08T13:55:31;11.67;;;10.87;;
8584;SDS011;7180;52.742;11.420;2023-03-08T13:57:58;12.93;;;11.83;;
8584;SDS011;7180;52.742;11.420;2023-03-08T14:00:26;17.20;;;15.40;;
8584;SDS011;7180;52.742;11.420;2023-03-08T14:02:57;14.67;;;13.43;;
8584;SDS011;7180;52.742;11.420;2023-03-08T14:05:25;14.33;;;13.03;;
8584;SDS011;7180;52.742;11.420;2023-03-08T14:08:00;13.87;;;12.67;;
8584;SDS011;7180;52.742;11.420;2023-03-08T14:10:51;14.57;;;13.37;;
8584;SDS011;7180;52.742;11.420;2023-03-08T14:13:25;13.63;;;12.53;;
8584;SDS011;7180;52.742;11.420;2023-03-08T14:15:55;13.03;;;12.03;;
8584;SDS011;7180;52.742;11.420;2023-03-08T14:18:23;11.90;;;11.00;;
8584;SDS011;7180;52.742;11.420;2023-03-08T14:21:01;12.13;;;11.23;;
8584;SDS011;7180;52.742;11.420;2023-03-08T14:23:29;11.80;;;10.90;;
8584;SDS011;7180;52.742;11.420;2023-03-08T14:26:00;12.63;;;11.60;;
8584;SDS011;7180;52.742;11.420;2023-03-08T14:28:33;12.83;;;11.83;;
8584;SDS011;7180;52.742;11.420;2023-03-08T14:30:59;12.13;;;11.23;;
8584;SDS011;7180;52.742;11.420;2023-03-08T14:33:25;12.30;;;11.30;;
8584;SDS011;7180;52.742;11.420;2023-03-08T14:35:53;12.13;;;11.23;;
8584;SDS011;7180;52.742;11.420;2023-03-08T14:38:23;12.20;;;11.20;;
8584;SDS011;7180;52.742;11.420;2023-03-08T14:40:49;12.10;;;11.10;;
8584;SDS011;7180;52.742;11.420;2023-03-08T14:43:16;12.30;;;11.30;;
8584;SDS011;7180;52.742;11.420;2023-03-08T14:45:54;12.83;;;11.83;;
8584;SDS011;7180;52.742;11.420;2023-03-08T14:48:28;15.33;;;14.13;;
8584;SDS011;7180;52.742;11.420;2023-03-08T14:51:01;14.57;;;13.37;;
8584;SDS011;7180;52.742;11.420;2023-03-08T14:53:42;13.83;;;12.73;;
8584;SDS011;7180;52.742;11.420;2023-03-08T14:58:33;12.70;;;11.70;;
8584;SDS011;7180;52.742;11.420;2023-03-08T15:01:02;12.33;;;11.33;;
8584;SDS011;7180;52.742;11.420;2023-03-08T15:03:28;13.10;;;12.10;;
8584;SDS011;7180;52.742;11.420;2023-03-08T15:05:55;13.13;;;11.97;;
8584;SDS011;7180;52.742;11.420;2023-03-08T15:08:21;12.93;;;12.00;;
8584;SDS011;7180;52.742;11.420;2023-03-08T15:10:47;13.77;;;12.67;;
8584;SDS011;7180;52.742;11.420;2023-03-08T15:13:20;13.70;;;12.50;;
8584;SDS011;7180;52.742;11.420;2023-03-08T15:15:47;13.83;;;12.70;;
8584;SDS011;7180;52.742;11.420;2023-03-08T15:18:12;13.43;;;12.40;;
8584;SDS011;7180;52.742;11.420;2023-03-08T15:20:39;13.03;;;12.03;;
8584;SDS011;7180;52.742;11.420;2023-03-08T15:23:41;13.37;;;12.17;;
8584;SDS011;7180;52.742;11.420;2023-03-08T15:26:03;14.10;;;12.90;;
8584;SDS011;7180;52.742;11.420;2023-03-08T15:28:30;12.67;;;11.67;;
8584;SDS011;7180;52.742;11.420;2023-03-08T15:30:55;12.90;;;11.90;;
8584;SDS011;7180;52.742;11.420;2023-03-08T15:33:21;12.60;;;11.60;;
8584;SDS011;7180;52.742;11.420;2023-03-08T15:35:47;12.67;;;11.37;;
8584;SDS011;7180;52.742;11.420;2023-03-08T15:38:14;11.90;;;11.00;;
8584;SDS011;7180;52.742;11.420;2023-03-08T15:40:41;12.47;;;11.57;;
8584;SDS011;7180;52.742;11.420;2023-03-08T15:43:06;12.17;;;11.23;;
8584;SDS011;7180;52.742;11.420;2023-03-08T15:45:32;12.20;;;11.30;;
8584;SDS011;7180;52.742;11.420;2023-03-08T15:47:58;12.23;;;11.33;;